Time;durP1;ratioP1;P1;durP2;ratioP2;P2;SDS_P1;SDS_P2;PMS_P1;PMS_P2;Temp;Humidity;BMP_temperature;BMP_pressure;BME280_temperature;BME280_humidity;BME280_pressure;Samples;Min_cycle;Max_cycle;Signal;HPM_P1;HPM_P2
2022/08/06 00:00:33;;;;;;;8.18;5.43;;;;;;;18.50;100.00;97070.53;5021580;28;20049;-67
2022/08/06 00:02:59;;;;;;;10.10;6.10;;;;;;;18.16;100.00;97071.19;5013426;28;20046;-68
2022/08/06 00:05:26;;;;;;;10.57;6.13;;;;;;;18.18;100.00;97068.03;5014190;28;20048;-67
2022/08/06 00:07:51;;;;;;;7.90;5.68;;;;;;;18.23;100.00;97062.03;5021686;28;20041;-67
2022/08/06 00:10:18;;;;;;;11.65;6.43;;;;;;;18.04;100.00;97053.09;5016205;28;20387;-67
2022/08/06 00:12:45;;;;;;;8.43;6.10;;;;;;;17.85;100.00;97053.59;5019403;28;20056;-66
2022/08/06 00:15:11;;;;;;;11.25;6.72;;;;;;;17.74;100.00;97051.66;5026608;28;20045;-66
2022/08/06 00:17:38;;;;;;;11.70;6.03;;;;;;;17.74;100.00;97059.97;5026434;28;20049;-67
2022/08/06 00:20:06;;;;;;;11.95;7.00;;;;;;;17.74;100.00;97064.75;5018960;28;20034;-69
2022/08/06 00:22:31;;;;;;;10.23;5.80;;;;;;;18.00;100.00;97068.94;5021605;28;20045;-67
2022/08/06 00:24:57;;;;;;;7.30;5.35;;;;;;;18.22;100.00;97071.53;5019841;28;20049;-70
2022/08/06 00:27:22;;;;;;;10.38;5.82;;;;;;;18.47;100.00;97074.09;5017049;28;20491;-67
2022/08/06 00:29:49;;;;;;;9.95;5.90;;;;;;;18.57;100.00;97075.22;5019299;28;20048;-69
2022/08/06 00:32:15;;;;;;;8.07;5.47;;;;;;;18.61;100.00;97082.28;5007699;28;20045;-69
2022/08/06 00:34:40;;;;;;;9.68;5.57;;;;;;;18.88;100.00;97088.00;5011266;28;20048;-66
2022/08/06 00:37:06;;;;;;;8.38;5.05;;;;;;;18.96;100.00;97091.50;5015825;28;20382;-69
2022/08/06 00:39:31;;;;;;;8.82;4.65;;;;;;;19.03;100.00;97091.44;5018989;28;20046;-68
2022/08/06 00:41:56;;;;;;;9.63;5.07;;;;;;;18.97;100.00;97073.66;5022743;28;20462;-66
2022/08/06 00:44:22;;;;;;;11.43;5.90;;;;;;;18.53;100.00;97078.03;5020063;28;20107;-69
2022/08/06 00:46:48;;;;;;;14.13;7.22;;;;;;;18.20;100.00;97068.41;5024318;28;20037;-68
2022/08/06 00:49:14;;;;;;;10.20;7.38;;;;;;;18.02;100.00;97065.75;5020395;28;20473;-70
2022/08/06 00:51:40;;;;;;;8.85;6.70;;;;;;;17.75;100.00;97071.84;5024587;28;20132;-65
2022/08/06 00:54:05;;;;;;;17.17;8.35;;;;;;;17.72;100.00;97079.00;5019722;28;20077;-69
2022/08/06 00:56:31;;;;;;;11.77;8.23;;;;;;;17.73;100.00;97080.53;5016013;28;20509;-68
2022/08/06 00:58:56;;;;;;;9.43;7.32;;;;;;;17.96;100.00;97087.56;5025131;28;20076;-67
2022/08/06 01:01:22;;;;;;;13.18;7.07;;;;;;;17.85;100.00;97086.84;5020074;28;20997;-67
2022/08/06 01:03:47;;;;;;;12.98;8.07;;;;;;;17.95;100.00;97084.03;5024387;28;20072;-68
2022/08/06 01:06:13;;;;;;;10.90;7.18;;;;;;;18.18;100.00;97081.88;5016727;28;20530;-69
2022/08/06 01:08:39;;;;;;;10.32;6.72;;;;;;;18.30;100.00;97081.38;5015149;28;20212;-70
2022/08/06 01:11:04;;;;;;;9.15;6.47;;;;;;;18.43;100.00;97088.00;5018186;28;20126;-71
2022/08/06 01:13:30;;;;;;;8.30;6.25;;;;;;;18.50;100.00;97087.94;5032923;28;20053;-69
2022/08/06 01:16:10;;;;;;;10.77;6.68;;;;;;;18.36;100.00;97071.44;5034966;28;20100;-68
2022/08/06 01:18:44;;;;;;;12.10;6.78;;;;;;;17.93;100.00;97052.34;5031164;28;20049;-67
2022/08/06 01:21:23;;;;;;;9.07;6.38;;;;;;;17.73;100.00;97052.84;5027933;28;20038;-67
2022/08/06 01:24:10;;;;;;;13.13;7.28;;;;;;;17.64;100.00;97046.97;5023900;28;20041;-68
2022/08/06 01:26:59;;;;;;;12.65;7.35;;;;;;;17.70;100.00;97059.22;5022489;28;20042;-67
2022/08/06 01:29:28;;;;;;;9.30;6.73;;;;;;;17.65;100.00;97061.63;5029030;28;20042;-69
2022/08/06 01:32:01;;;;;;;13.82;8.13;;;;;;;17.78;100.00;97057.19;5017470;28;20049;-66
2022/08/06 01:34:27;;;;;;;9.80;7.45;;;;;;;17.76;100.00;97063.13;5019254;28;20098;-66
2022/08/06 01:37:01;;;;;;;11.13;7.77;;;;;;;17.66;100.00;97046.56;5024369;28;20041;-67
2022/08/06 01:39:29;;;;;;;13.10;8.05;;;;;;;17.60;100.00;97048.97;5009126;28;20288;-68
2022/08/06 01:41:55;;;;;;;10.68;8.30;;;;;;;17.64;100.00;97057.28;5024205;28;20046;-67
2022/08/06 01:44:25;;;;;;;12.30;7.55;;;;;;;17.62;100.00;97052.13;5016543;28;20516;-69
2022/08/06 01:46:55;;;;;;;11.52;8.30;;;;;;;17.57;100.00;97049.78;5016856;28;20049;-67
2022/08/06 01:49:25;;;;;;;14.00;8.43;;;;;;;17.61;100.00;97061.66;5018439;28;20041;-67
2022/08/06 01:51:51;;;;;;;;;;;;;;;17.60;100.00;97059.28;5023610;28;20057;-68
2022/08/06 01:54:19;;;;;;;13.07;8.35;;;;;;;17.64;100.00;97068.34;5019024;28;19983;-67
2022/08/06 01:56:47;;;;;;;15.27;8.65;;;;;;;17.63;100.00;97073.09;5023419;28;20164;-67
2022/08/06 01:59:16;;;;;;;11.52;8.30;;;;;;;17.70;100.00;97070.28;5011378;28;20045;-68
2022/08/06 02:01:47;;;;;;;13.80;8.13;;;;;;;17.72;100.00;97075.44;5013915;28;20045;-67
2022/08/06 02:04:14;;;;;;;12.82;7.47;;;;;;;17.68;100.00;97067.16;5019902;28;20038;-67
2022/08/06 02:06:43;;;;;;;12.38;8.13;;;;;;;17.63;100.00;97064.00;5023706;28;20041;-66
2022/08/06 02:09:13;;;;;;;20.42;9.00;;;;;;;17.70;100.00;97059.22;5019606;28;20038;-67
2022/08/06 02:11:41;;;;;;;16.05;7.88;;;;;;;17.62;100.00;97060.44;5023315;28;20049;-67
2022/08/06 02:14:09;;;;;;;12.07;8.00;;;;;;;17.61;100.00;97064.41;5009242;28;20034;-64
2022/08/06 02:16:38;;;;;;;14.50;7.70;;;;;;;17.55;100.00;97061.25;5020917;28;20045;-67
2022/08/06 02:19:05;;;;;;;11.70;7.88;;;;;;;17.67;100.00;97054.47;5021476;28;20752;-67
2022/08/06 02:21:32;;;;;;;11.93;7.00;;;;;;;17.84;100.00;97063.06;5026918;28;20530;-67
2022/08/06 02:24:01;;;;;;;10.27;6.70;;;;;;;17.77;100.00;97063.91;5034993;28;20402;-66
2022/08/06 02:26:28;;;;;;;10.30;6.60;;;;;;;17.70;100.00;97069.47;5012113;28;20053;-68
2022/08/06 02:28:57;;;;;;;11.75;6.60;;;;;;;17.76;100.00;97068.66;5023531;28;20483;-66
2022/08/06 02:31:23;;;;;;;11.65;6.28;;;;;;;17.85;100.00;97057.16;5018898;28;20049;-68
2022/08/06 02:33:49;;;;;;;10.73;6.15;;;;;;;17.76;100.00;97071.44;5022575;28;20045;-68
2022/08/06 02:36:42;;;;;;;12.18;6.53;;;;;;;17.76;100.00;97082.50;5017787;28;20379;-69
2022/08/06 02:39:23;;;;;;;9.75;6.97;;;;;;;17.87;100.00;97073.38;5017391;28;20563;-67
2022/08/06 02:42:11;;;;;;;8.52;5.93;;;;;;;17.90;100.00;97072.59;5022538;28;20402;-67
2022/08/06 02:45:22;;;;;;;11.88;6.40;;;;;;;17.79;100.00;97075.41;5022189;28;20041;-67
2022/08/06 02:47:54;;;;;;;10.18;6.80;;;;;;;17.80;100.00;97076.19;5014849;28;20130;-67
2022/08/06 02:50:27;;;;;;;11.25;6.75;;;;;;;17.88;100.00;97074.94;5016895;28;20041;-65
2022/08/06 02:52:58;;;;;;;11.70;7.25;;;;;;;17.87;100.00;97079.72;5022606;28;20135;-66
2022/08/06 02:55:29;;;;;;;10.77;7.55;;;;;;;17.88;100.00;97078.53;5016301;28;20132;-67
2022/08/06 02:57:59;;;;;;;12.38;7.20;;;;;;;17.91;100.00;97076.91;5021475;28;20107;-65
2022/08/06 03:00:24;;;;;;;;;;;;;;;17.89;100.00;97077.31;5018518;28;21147;-66
2022/08/06 03:02:54;;;;;;;13.80;8.90;;;;;;;17.92;100.00;97067.41;5014390;28;19928;-66
2022/08/06 03:05:21;;;;;;;13.88;8.27;;;;;;;17.86;100.00;97061.53;5018212;28;20080;-67
2022/08/06 03:07:50;;;;;;;19.08;11.13;;;;;;;17.85;100.00;97062.72;5022073;28;20068;-67
2022/08/06 03:10:18;;;;;;;23.58;12.40;;;;;;;17.80;100.00;97063.09;5008823;28;20046;-65
2022/08/06 03:12:45;;;;;;;23.90;12.73;;;;;;;17.97;100.00;97061.44;5022450;28;20433;-68
2022/08/06 03:15:12;;;;;;;23.15;14.48;;;;;;;17.92;100.00;97067.41;5020705;28;20045;-67
2022/08/06 03:17:40;;;;;;;26.95;14.05;;;;;;;18.00;100.00;97060.63;5012615;28;20034;-65
2022/08/06 03:20:08;;;;;;;25.35;14.90;;;;;;;17.94;100.00;97071.34;5016460;28;20045;-68
2022/08/06 03:22:36;;;;;;;27.13;15.55;;;;;;;17.98;100.00;97065.00;5057446;23;20057;-64
2022/08/06 03:25:04;;;;;;;25.92;15.45;;;;;;;18.01;100.00;97064.97;5041853;28;20052;-64
2022/08/06 03:27:31;;;;;;;33.97;15.25;;;;;;;17.90;100.00;97070.59;5041113;28;20041;-64
2022/08/06 03:29:58;;;;;;;22.60;14.02;;;;;;;17.80;100.00;97079.72;5042666;28;20056;-64
2022/08/06 03:32:24;;;;;;;24.38;13.98;;;;;;;17.87;100.00;97076.94;5038011;28;20044;-64
2022/08/06 03:34:50;;;;;;;22.42;14.00;;;;;;;18.16;100.00;97068.41;5041825;28;20128;-64
2022/08/06 03:37:19;;;;;;;22.63;14.40;;;;;;;18.28;100.00;97070.72;5036832;28;20589;-65
2022/08/06 03:39:46;;;;;;;24.13;12.75;;;;;;;18.38;100.00;97068.25;5037332;28;20060;-65
2022/08/06 03:42:11;;;;;;;22.15;13.65;;;;;;;18.30;100.00;97076.63;5033140;28;20063;-62
2022/08/06 03:44:36;;;;;;;26.45;14.32;;;;;;;18.14;100.00;97079.13;5041156;28;20136;-65
2022/08/06 03:47:09;;;;;;;22.95;13.57;;;;;;;17.89;100.00;97082.09;5041098;28;20053;-64
2022/08/06 03:49:47;;;;;;;27.20;14.00;;;;;;;17.89;100.00;97088.41;5044282;28;20053;-64
2022/08/06 03:52:19;;;;;;;21.55;12.50;;;;;;;18.02;100.00;97079.63;5038776;28;20049;-65
2022/08/06 03:54:49;;;;;;;21.52;12.70;;;;;;;18.20;100.00;97085.03;5054472;28;20045;-64
2022/08/06 03:57:19;;;;;;;23.38;13.27;;;;;;;18.02;100.00;97085.16;5047743;28;20040;-63
2022/08/06 03:59:48;;;;;;;20.17;12.40;;;;;;;18.32;100.00;97085.31;5046020;28;20147;-63
2022/08/06 04:02:16;;;;;;;22.45;13.73;;;;;;;18.39;100.00;97087.25;5036242;28;20045;-64
2022/08/06 04:04:43;;;;;;;18.58;11.30;;;;;;;18.60;100.00;97091.03;5040062;28;20132;-64
2022/08/06 04:07:11;;;;;;;18.50;11.50;;;;;;;18.36;100.00;97099.16;5035959;28;20068;-64
2022/08/06 04:09:37;;;;;;;15.57;9.80;;;;;;;18.18;100.00;97095.75;5038702;28;20068;-64
2022/08/06 04:12:04;;;;;;;17.15;9.52;;;;;;;18.06;100.00;97108.91;5032057;28;20037;-62
2022/08/06 04:14:30;;;;;;;15.98;9.80;;;;;;;17.91;100.00;97108.19;5038542;28;20041;-64
2022/08/06 04:16:57;;;;;;;13.93;9.35;;;;;;;17.75;100.00;97113.38;5040819;28;20127;-64
2022/08/06 04:19:23;;;;;;;12.07;7.80;;;;;;;17.92;100.00;97117.28;5037313;28;20037;-63
2022/08/06 04:21:49;;;;;;;14.00;8.68;;;;;;;17.24;100.00;97118.38;5044365;28;20068;-64
2022/08/06 04:24:14;;;;;;;13.75;9.18;;;;;;;16.95;100.00;97129.50;5039121;28;20056;-64
2022/08/06 04:26:43;;;;;;;15.25;9.45;;;;;;;16.52;100.00;97124.00;5037394;28;20123;-63
2022/08/06 04:29:11;;;;;;;14.32;8.63;;;;;;;16.44;100.00;97125.97;5036580;28;20549;-63
2022/08/06 04:31:38;;;;;;;17.15;9.75;;;;;;;16.26;100.00;97119.66;5040545;28;20049;-62
2022/08/06 04:34:05;;;;;;;18.90;10.38;;;;;;;16.25;100.00;97116.09;5038080;28;20037;-62
2022/08/06 04:36:31;;;;;;;19.70;9.98;;;;;;;16.25;100.00;97129.13;5040034;28;20127;-63
2022/08/06 04:38:57;;;;;;;14.50;9.40;;;;;;;16.36;100.00;97132.69;5035113;28;20056;-64
2022/08/06 04:41:23;;;;;;;20.77;9.68;;;;;;;16.23;100.00;97131.50;5026236;28;20379;-62
2022/08/06 04:43:49;;;;;;;14.73;8.65;;;;;;;16.35;100.00;97139.41;5036735;28;20103;-63
2022/08/06 04:46:15;;;;;;;17.63;8.27;;;;;;;16.50;100.00;97137.44;5034828;28;20032;-63
2022/08/06 04:48:40;;;;;;;15.27;8.00;;;;;;;16.40;100.00;97133.50;5034470;28;20044;-65
2022/08/06 04:51:06;;;;;;;13.50;8.27;;;;;;;16.13;100.00;97133.03;5035362;28;20033;-65
2022/08/06 04:53:37;;;;;;;14.48;7.55;;;;;;;16.08;100.00;97135.41;5039087;28;20077;-64
2022/08/06 04:56:04;;;;;;;14.15;7.75;;;;;;;16.39;100.00;97145.72;5037251;28;20551;-62
2022/08/06 04:58:30;;;;;;;15.05;7.88;;;;;;;16.35;100.00;97141.34;5041529;28;20052;-63
2022/08/06 05:00:55;;;;;;;11.27;6.93;;;;;;;16.47;100.00;97140.19;5034528;28;20037;-62
2022/08/06 05:03:21;;;;;;;13.00;7.13;;;;;;;16.56;100.00;97143.34;5031636;28;20521;-64
2022/08/06 05:05:52;;;;;;;13.82;7.18;;;;;;;16.34;100.00;97148.09;5041191;28;20653;-63
2022/08/06 05:08:20;;;;;;;13.52;7.45;;;;;;;16.73;100.00;97147.31;5027524;28;20069;-64
2022/08/06 05:10:58;;;;;;;12.10;8.25;;;;;;;16.32;100.00;97153.22;5040041;28;20136;-64
2022/08/06 05:13:31;;;;;;;18.65;8.00;;;;;;;16.63;100.00;97151.66;5034505;28;20719;-64
2022/08/06 05:16:00;;;;;;;11.95;7.43;;;;;;;16.35;100.00;97141.34;5040441;28;20075;-64
2022/08/06 05:18:33;;;;;;;15.18;8.50;;;;;;;16.53;100.00;97153.22;5035494;28;20623;-64
2022/08/06 05:21:00;;;;;;;12.52;8.07;;;;;;;16.24;100.00;97149.63;5039219;28;20056;-63
2022/08/06 05:23:37;;;;;;;16.15;8.27;;;;;;;16.10;100.00;97153.19;5027906;28;20041;-64
2022/08/06 05:26:03;;;;;;;12.75;7.80;;;;;;;16.04;100.00;97155.56;5037937;28;20599;-63
2022/08/06 05:28:30;;;;;;;19.10;7.80;;;;;;;16.19;100.00;97163.88;5036794;28;20135;-63
2022/08/06 05:30:55;;;;;;;12.40;7.22;;;;;;;16.63;100.00;97169.00;5039610;28;20100;-64
2022/08/06 05:33:31;;;;;;;11.43;7.10;;;;;;;16.32;100.00;97169.81;5042069;28;20133;-65
2022/08/06 05:36:01;;;;;;;10.27;6.75;;;;;;;16.42;100.00;97175.34;5037434;28;20080;-66
2022/08/06 05:38:27;;;;;;;12.55;7.45;;;;;;;16.32;100.00;97178.88;5035555;28;20037;-64
2022/08/06 05:40:55;;;;;;;15.90;6.60;;;;;;;16.15;100.00;97187.91;5043014;28;20041;-64
2022/08/06 05:43:20;;;;;;;13.93;6.97;;;;;;;16.23;100.00;97181.25;5038304;28;20499;-65
2022/08/06 05:45:47;;;;;;;14.23;7.18;;;;;;;16.01;100.00;97183.19;5035908;28;20132;-64
2022/08/06 05:48:15;;;;;;;11.45;6.95;;;;;;;16.05;100.00;97184.75;5038444;28;20044;-64
2022/08/06 05:50:48;;;;;;;13.88;7.45;;;;;;;15.96;100.00;97192.63;5049275;28;20052;-65
2022/08/06 05:53:21;;;;;;;13.88;6.97;;;;;;;15.94;100.00;97200.50;5021058;28;20493;-65
2022/08/06 05:56:09;;;;;;;11.82;7.18;;;;;;;15.90;100.00;97207.19;5045837;28;20044;-64
2022/08/06 05:58:56;;;;;;;13.68;6.93;;;;;;;15.95;100.00;97207.59;5040628;28;20055;-64
2022/08/06 06:01:23;;;;;;;12.55;6.47;;;;;;;16.13;100.00;97212.41;5038870;28;20041;-64
2022/08/06 06:03:53;;;;;;;13.45;6.00;;;;;;;16.27;100.00;97217.97;5045083;28;20049;-64
2022/08/06 06:06:20;;;;;;;10.80;5.90;;;;;;;16.16;100.00;97217.16;5036591;28;20048;-64
2022/08/06 06:08:46;;;;;;;10.35;6.20;;;;;;;16.00;100.00;97218.28;5046178;28;20040;-64
2022/08/06 06:11:12;;;;;;;12.75;5.72;;;;;;;16.24;100.00;97221.50;5039261;28;20055;-64
2022/08/06 06:13:40;;;;;;;11.00;5.07;;;;;;;16.56;100.00;97229.84;5036107;28;20045;-65
2022/08/06 06:16:18;;;;;;;8.60;5.20;;;;;;;16.35;100.00;97224.28;5037916;28;20048;-63
2022/08/06 06:19:05;;;;;;;10.73;5.05;;;;;;;16.15;100.00;97224.66;5035929;28;20555;-64
2022/08/06 06:21:34;;;;;;;12.93;6.47;;;;;;;16.17;100.00;97224.25;5042419;28;20091;-65
2022/08/06 06:24:08;;;;;;;10.77;5.63;;;;;;;16.43;100.00;97225.91;5043896;28;20045;-64
2022/08/06 06:26:51;;;;;;;8.20;4.80;;;;;;;16.62;100.00;97235.81;5033749;28;20046;-63
2022/08/06 06:29:27;;;;;;;8.88;4.45;;;;;;;16.80;100.00;97231.06;5037415;28;20049;-63
2022/08/06 06:32:07;;;;;;;10.65;5.00;;;;;;;16.20;100.00;97235.31;5043248;28;20037;-64
2022/08/06 06:34:59;;;;;;;9.40;4.45;;;;;;;16.22;100.00;97232.97;5042560;28;20390;-63
2022/08/06 06:37:31;;;;;;;10.60;4.75;;;;;;;16.23;100.00;97229.00;5036121;28;20037;-63
2022/08/06 06:40:38;;;;;;;6.45;4.40;;;;;;;16.27;100.00;97236.53;5036024;28;20043;-63
2022/08/06 06:43:22;;;;;;;10.07;4.55;;;;;;;16.32;100.00;97238.91;5012180;28;20374;-61
2022/08/06 06:46:04;;;;;;;10.35;4.20;;;;;;;16.25;100.00;97228.63;5032216;28;20102;-63
2022/08/06 06:48:40;;;;;;;11.23;4.50;;;;;;;15.98;100.00;97234.47;5034420;28;20053;-63
2022/08/06 06:51:13;;;;;;;7.47;4.50;;;;;;;15.58;100.00;97227.94;5037953;28;20064;-62
2022/08/06 06:53:45;;;;;;;10.52;4.95;;;;;;;15.56;100.00;97224.00;5042612;28;20550;-63
2022/08/06 06:56:15;;;;;;;7.15;4.57;;;;;;;15.63;100.00;97226.81;5038921;28;20052;-64
2022/08/06 06:58:46;;;;;;;8.23;4.57;;;;;;;15.46;100.00;97228.28;5046537;28;20569;-63
2022/08/06 07:01:14;;;;;;;10.45;4.60;;;;;;;15.43;100.00;97229.84;5039708;28;20394;-64
2022/08/06 07:03:42;;;;;;;9.00;4.88;;;;;;;15.45;100.00;97229.47;5044749;28;20493;-64
2022/08/06 07:06:09;;;;;;;11.73;5.25;;;;;;;15.29;100.00;97233.31;5038761;28;20097;-65
2022/08/06 07:08:44;;;;;;;8.90;5.18;;;;;;;15.21;100.00;97226.16;5042269;28;20099;-65
2022/08/06 07:11:13;;;;;;;10.93;4.63;;;;;;;15.34;100.00;97229.41;5038852;28;20037;-62
2022/08/06 07:13:40;;;;;;;9.55;4.55;;;;;;;15.36;100.00;97227.06;5043154;28;20126;-65
2022/08/06 07:16:07;;;;;;;11.05;4.65;;;;;;;15.23;100.00;97229.34;5029062;28;20128;-65
2022/08/06 07:18:34;;;;;;;10.55;4.50;;;;;;;15.27;100.00;97232.13;5042547;28;20049;-64
2022/08/06 07:21:01;;;;;;;12.57;4.93;;;;;;;15.31;100.00;97234.91;5043740;28;20044;-65
2022/08/06 07:23:27;;;;;;;7.55;4.40;;;;;;;15.21;100.00;97239.16;5036161;28;20051;-63
2022/08/06 07:25:55;;;;;;;14.38;4.70;;;;;;;15.26;100.00;97233.28;5042910;28;20049;-62
2022/08/06 07:28:25;;;;;;;10.15;4.65;;;;;;;15.04;100.00;97238.66;5039466;28;20132;-63
2022/08/06 07:30:52;;;;;;;8.90;4.60;;;;;;;15.08;100.00;97242.22;5051045;28;20048;-66
2022/08/06 07:33:18;;;;;;;8.27;3.97;;;;;;;15.09;100.00;97254.84;5040090;28;20147;-64
2022/08/06 07:35:46;;;;;;;10.57;3.95;;;;;;;15.15;100.00;97249.78;5046075;28;20063;-64
2022/08/06 07:38:15;;;;;;;6.00;3.85;;;;;;;15.33;100.00;97246.34;5040729;28;20036;-63
2022/08/06 07:40:52;;;;;;;7.53;4.00;;;;;;;15.18;100.00;97249.00;5039106;28;20037;-66
2022/08/06 07:43:22;;;;;;;5.10;3.78;;;;;;;15.30;100.00;97247.88;5058220;28;20037;-65
2022/08/06 07:45:50;;;;;;;6.15;3.90;;;;;;;15.46;100.00;97253.91;5053850;28;20397;-64
2022/08/06 07:48:18;;;;;;;7.13;3.83;;;;;;;15.34;100.00;97240.44;5045631;28;20072;-64
2022/08/06 07:50:48;;;;;;;6.10;3.72;;;;;;;15.27;100.00;97252.22;5026866;28;20045;-65
2022/08/06 07:53:14;;;;;;;5.47;3.72;;;;;;;15.42;100.00;97255.84;5040055;28;20394;-65
2022/08/06 07:55:40;;;;;;;7.97;4.43;;;;;;;15.30;100.00;97256.16;5037223;28;20041;-63
2022/08/06 07:58:07;;;;;;;5.35;3.40;;;;;;;15.24;100.00;97263.25;5037795;28;20477;-63
2022/08/06 08:00:34;;;;;;;6.45;3.95;;;;;;;15.36;100.00;97254.66;5040886;28;20052;-63
2022/08/06 08:08:31;;;;;;;6.30;3.90;;;;;;;15.41;100.00;97265.34;5033013;28;20430;-63
2022/08/06 08:10:57;;;;;;;6.10;3.20;;;;;;;15.34;100.00;97234.13;5042217;28;20043;-63
2022/08/06 08:13:23;;;;;;;9.93;4.43;;;;;;;15.28;100.00;97256.56;5041497;28;21077;-64
2022/08/06 08:15:50;;;;;;;8.07;3.97;;;;;;;15.25;100.00;97265.63;5048985;28;20055;-64
2022/08/06 08:18:15;;;;;;;7.47;3.83;;;;;;;15.27;100.00;97259.72;5035311;28;20056;-64
2022/08/06 08:20:45;;;;;;;4.80;3.70;;;;;;;15.12;100.00;97260.78;5036978;28;20533;-62
2022/08/06 08:23:12;;;;;;;5.78;3.50;;;;;;;15.32;100.00;97255.78;5031081;28;20049;-64
2022/08/06 08:25:39;;;;;;;5.88;4.15;;;;;;;15.16;100.00;97272.63;5040075;28;20041;-64
2022/08/06 08:28:09;;;;;;;7.32;4.05;;;;;;;15.26;100.00;97275.47;5037111;28;20131;-62
2022/08/06 08:30:38;;;;;;;7.18;3.38;;;;;;;15.20;100.00;97276.22;5040536;28;20655;-64
2022/08/06 08:33:03;;;;;;;7.97;4.22;;;;;;;15.38;100.00;97270.84;5036019;28;20494;-63
2022/08/06 08:35:29;;;;;;;8.20;4.07;;;;;;;15.19;100.00;97274.63;5037240;28;20056;-64
2022/08/06 08:37:54;;;;;;;6.28;3.88;;;;;;;15.21;100.00;97291.59;5034601;28;20032;-63
2022/08/06 08:40:21;;;;;;;6.63;4.07;;;;;;;15.16;100.00;97280.91;5039871;28;20049;-63
2022/08/06 08:42:53;;;;;;;7.63;4.30;;;;;;;15.27;100.00;97285.34;5038797;28;20048;-63
2022/08/06 08:45:19;;;;;;;7.43;3.88;;;;;;;15.09;100.00;97293.47;5026682;28;20056;-63
2022/08/06 08:47:50;;;;;;;7.03;4.45;;;;;;;15.06;100.00;97293.44;5040599;28;20076;-63
2022/08/06 08:50:19;;;;;;;6.85;4.80;;;;;;;15.10;100.00;97299.78;5036945;28;20075;-64
2022/08/06 08:52:48;;;;;;;6.53;4.47;;;;;;;15.15;100.00;97301.41;5042252;28;20041;-63
2022/08/06 08:55:16;;;;;;;7.82;4.63;;;;;;;15.27;100.00;97295.59;5038970;28;20041;-64
2022/08/06 08:57:42;;;;;;;8.82;5.22;;;;;;;14.98;100.00;97300.88;5038321;28;20041;-63
2022/08/06 09:00:08;;;;;;;7.53;5.13;;;;;;;14.86;100.00;97301.16;5033627;28;20124;-65
2022/08/06 09:02:33;;;;;;;8.20;5.05;;;;;;;14.90;100.00;97308.28;5046117;28;20382;-63
2022/08/06 09:05:00;;;;;;;7.90;5.40;;;;;;;15.01;100.00;97305.63;5045431;28;20049;-64
2022/08/06 09:07:27;;;;;;;10.95;5.82;;;;;;;14.91;100.00;97301.59;5038020;28;20227;-62
2022/08/06 09:09:54;;;;;;;8.40;5.88;;;;;;;14.94;100.00;97310.28;5043466;28;20037;-63
2022/08/06 09:12:20;;;;;;;8.02;5.45;;;;;;;15.12;100.00;97311.22;5030069;28;20057;-63
2022/08/06 09:14:46;;;;;;;7.30;5.30;;;;;;;15.27;100.00;97317.66;5043604;28;20043;-62
2022/08/06 09:17:12;;;;;;;6.95;5.18;;;;;;;15.34;100.00;97327.94;5039594;28;20033;-63
2022/08/06 09:19:38;;;;;;;8.77;5.13;;;;;;;15.16;100.00;97322.28;5039307;28;20049;-63
2022/08/06 09:22:04;;;;;;;8.40;5.45;;;;;;;15.64;100.00;97327.78;5036242;28;20196;-66
2022/08/06 09:24:30;;;;;;;10.38;5.53;;;;;;;15.70;100.00;97334.53;5064653;28;20037;-65
2022/08/06 09:27:03;;;;;;;8.68;5.30;;;;;;;15.60;100.00;97332.47;5035566;28;20080;-60
2022/08/06 09:29:28;;;;;;;10.30;5.05;;;;;;;15.81;100.00;97337.34;5038955;28;20056;-63
2022/08/06 09:31:54;;;;;;;9.88;5.75;;;;;;;15.72;100.00;97337.69;5036493;28;20413;-64
2022/08/06 09:34:19;;;;;;;7.10;4.93;;;;;;;15.58;100.00;97334.84;5037775;28;20064;-63
2022/08/06 09:36:46;;;;;;;8.25;4.97;;;;;;;15.62;100.00;97339.19;5043309;28;20045;-64
2022/08/06 09:39:13;;;;;;;8.10;5.85;;;;;;;15.72;100.00;97334.94;5039555;28;20037;-66
2022/08/06 09:41:57;;;;;;;9.55;5.75;;;;;;;15.74;100.00;97337.31;5041345;28;20145;-66
2022/08/06 09:44:22;;;;;;;9.70;5.50;;;;;;;15.86;100.00;97337.81;5039401;28;20045;-65
2022/08/06 09:46:52;;;;;;;10.25;6.10;;;;;;;15.56;100.00;97331.69;5042636;28;20048;-65
2022/08/06 09:49:19;;;;;;;9.55;5.97;;;;;;;15.52;100.00;97342.69;5037955;28;20127;-65
2022/08/06 09:51:47;;;;;;;10.02;6.75;;;;;;;15.49;100.00;97340.69;5043985;28;20413;-66
2022/08/06 09:54:15;;;;;;;9.45;6.47;;;;;;;15.73;100.00;97344.78;5038512;28;20037;-65
2022/08/06 09:56:44;;;;;;;8.68;6.50;;;;;;;15.48;100.00;97342.66;5043082;28;20040;-65
2022/08/06 09:59:11;;;;;;;8.63;6.95;;;;;;;15.54;100.00;97345.03;5040053;28;20052;-65
2022/08/06 10:01:45;;;;;;;13.55;6.68;;;;;;;15.64;100.00;97350.66;5044431;28;20048;-65
2022/08/06 10:04:23;;;;;;;11.50;7.10;;;;;;;15.65;100.00;97343.19;5039415;28;20087;-66
2022/08/06 10:06:53;;;;;;;10.18;7.72;;;;;;;15.54;100.00;97336.75;5040546;28;20033;-65
2022/08/06 10:09:18;;;;;;;13.75;8.30;;;;;;;15.74;100.00;97346.41;5044684;28;20105;-64
2022/08/06 10:11:43;;;;;;;10.95;7.30;;;;;;;15.76;100.00;97346.03;5043182;28;20109;-66
2022/08/06 10:14:23;;;;;;;14.95;7.18;;;;;;;16.00;100.00;97341.81;5035919;28;20401;-64
2022/08/06 10:17:04;;;;;;;12.32;7.35;;;;;;;15.90;100.00;97346.13;5042623;28;20546;-65
2022/08/06 10:19:30;;;;;;;9.57;7.38;;;;;;;15.92;100.00;97351.22;5041135;28;20136;-64
2022/08/06 10:22:03;;;;;;;13.68;7.70;;;;;;;15.91;100.00;97344.94;5042299;28;20127;-65
2022/08/06 10:24:31;;;;;;;11.52;7.43;;;;;;;16.05;100.00;97346.97;5039113;28;20064;-65
2022/08/06 10:26:57;;;;;;;10.25;8.27;;;;;;;15.76;100.00;97352.34;5042858;28;20095;-66
2022/08/06 10:29:24;;;;;;;9.80;7.88;;;;;;;16.24;100.00;97351.41;5035916;28;20746;-64
2022/08/06 10:31:52;;;;;;;9.52;8.05;;;;;;;16.00;100.00;97341.81;5043284;28;20045;-63
2022/08/06 10:34:25;;;;;;;11.88;7.95;;;;;;;16.29;100.00;97347.47;5052401;28;20049;-65
2022/08/06 10:36:57;;;;;;;11.15;8.73;;;;;;;16.02;100.00;97350.50;5058675;28;20071;-64
2022/08/06 10:39:27;;;;;;;12.18;8.73;;;;;;;16.12;100.00;97341.50;5037353;28;20126;-63
2022/08/06 10:41:54;;;;;;;12.95;9.02;;;;;;;16.21;100.00;97341.13;5042463;28;20098;-64
2022/08/06 10:44:25;;;;;;;10.95;9.43;;;;;;;16.01;100.00;97337.88;5035825;28;20041;-64
2022/08/06 10:46:51;;;;;;;11.63;7.82;;;;;;;16.44;100.00;97341.63;5042296;28;20049;-65
2022/08/06 10:49:19;;;;;;;10.63;8.68;;;;;;;16.33;100.00;97335.28;5037721;28;20484;-64
2022/08/06 10:51:47;;;;;;;14.77;9.10;;;;;;;16.56;100.00;97339.69;5042490;28;20485;-62
2022/08/06 10:54:13;;;;;;;12.52;8.75;;;;;;;16.58;100.00;97331.78;5037916;28;20037;-63
2022/08/06 10:56:38;;;;;;;9.85;8.13;;;;;;;16.81;100.00;97334.19;5042906;28;20044;-64
2022/08/06 10:59:05;;;;;;;11.55;9.13;;;;;;;16.54;100.00;97337.28;5038782;28;20045;-67
2022/08/06 11:01:57;;;;;;;13.38;9.48;;;;;;;16.96;100.00;97335.03;5041746;28;20037;-64
2022/08/06 11:04:48;;;;;;;10.38;7.95;;;;;;;17.38;100.00;97337.03;5053681;28;20362;-64
2022/08/06 11:07:32;;;;;;;11.68;8.63;;;;;;;17.35;100.00;97326.75;5048697;28;20041;-63
2022/08/06 11:10:26;;;;;;;12.07;8.10;;;;;;;17.34;100.00;97327.16;5035969;28;20111;-62
2022/08/06 11:13:17;;;;;;;12.90;9.52;;;;;;;17.20;100.00;97300.28;5041654;28;20045;-63
2022/08/06 11:15:43;;;;;;;13.98;8.73;;;;;;;17.46;100.00;97325.97;5041779;28;20067;-62
2022/08/06 11:18:11;;;;;;;12.57;9.60;;;;;;;17.50;100.00;97312.91;5038146;28;20037;-63
2022/08/06 11:20:41;;;;;;;10.77;8.27;;;;;;;17.70;100.00;97321.56;5040393;28;20521;-63
2022/08/06 11:23:12;;;;;;;12.52;8.70;;;;;;;17.48;100.00;97324.38;5036347;28;20052;-64
2022/08/06 11:25:40;;;;;;;12.10;8.90;;;;;;;17.35;100.00;97323.97;5042078;28;20426;-63
2022/08/06 11:28:07;;;;;;;13.20;9.65;;;;;;;17.36;100.00;97314.50;5036623;28;20451;-64
2022/08/06 11:30:53;;;;;;;12.35;8.45;;;;;;;17.55;100.00;97320.81;5042266;28;20480;-64
2022/08/06 11:33:43;;;;;;;12.75;8.73;;;;;;;17.93;100.00;97316.41;5036460;28;20075;-62
2022/08/06 11:36:23;;;;;;;11.98;8.70;;;;;;;17.94;100.00;97323.53;5035509;28;20401;-64